sensor_id;sensor_type;location;lat;lon;timestamp;temperature;humidity
8422;DHT22;4248;48.196;10.924;2023-02-28T00:00:23;-0.70;45.50
8422;DHT22;4248;48.196;10.924;2023-02-28T00:02:50;-0.70;45.40
8422;DHT22;4248;48.196;10.924;2023-02-28T00:05:18;-0.70;45.30
8422;DHT22;4248;48.196;10.924;2023-02-28T00:07:43;-0.80;45.10
8422;DHT22;4248;48.196;10.924;2023-02-28T00:10:12;-0.80;44.80
8422;DHT22;4248;48.196;10.924;2023-02-28T00:12:39;-0.70;45.00
8422;DHT22;4248;48.196;10.924;2023-02-28T00:15:09;-0.80;44.90
8422;DHT22;4248;48.196;10.924;2023-02-28T00:17:35;-0.80;44.90
8422;DHT22;4248;48.196;10.924;2023-02-28T00:20:01;-0.80;44.70
8422;DHT22;4248;48.196;10.924;2023-02-28T00:22:27;-0.70;44.60
8422;DHT22;4248;48.196;10.924;2023-02-28T00:24:52;-0.70;44.50
8422;DHT22;4248;48.196;10.924;2023-02-28T00:27:18;-0.70;44.50
8422;DHT22;4248;48.196;10.924;2023-02-28T00:29:46;-0.80;44.40
8422;DHT22;4248;48.196;10.924;2023-02-28T00:32:12;-0.80;44.40
8422;DHT22;4248;48.196;10.924;2023-02-28T00:34:37;-0.80;44.30
8422;DHT22;4248;48.196;10.924;2023-02-28T00:37:08;-0.80;44.40
8422;DHT22;4248;48.196;10.924;2023-02-28T00:39:35;-0.80;44.30
8422;DHT22;4248;48.196;10.924;2023-02-28T00:42:02;-0.80;44.20
8422;DHT22;4248;48.196;10.924;2023-02-28T00:44:28;-0.90;44.30
8422;DHT22;4248;48.196;10.924;2023-02-28T00:46:54;-0.90;44.70
8422;DHT22;4248;48.196;10.924;2023-02-28T00:49:21;-1.00;44.60
8422;DHT22;4248;48.196;10.924;2023-02-28T00:51:46;-1.10;44.70
8422;DHT22;4248;48.196;10.924;2023-02-28T00:54:12;-1.20;44.80
8422;DHT22;4248;48.196;10.924;2023-02-28T00:56:38;-1.20;45.00
8422;DHT22;4248;48.196;10.924;2023-02-28T00:59:03;-1.30;45.10
8422;DHT22;4248;48.196;10.924;2023-02-28T01:01:29;-1.40;45.20
8422;DHT22;4248;48.196;10.924;2023-02-28T01:03:54;-1.40;45.30
8422;DHT22;4248;48.196;10.924;2023-02-28T01:06:20;-1.50;45.60
8422;DHT22;4248;48.196;10.924;2023-02-28T01:08:46;-1.60;45.70
8422;DHT22;4248;48.196;10.924;2023-02-28T01:11:13;-1.60;45.80
8422;DHT22;4248;48.196;10.924;2023-02-28T01:13:40;-1.60;46.00
8422;DHT22;4248;48.196;10.924;2023-02-28T01:16:06;-1.70;46.20
8422;DHT22;4248;48.196;10.924;2023-02-28T01:18:32;-1.70;46.50
8422;DHT22;4248;48.196;10.924;2023-02-28T01:20:58;-1.70;46.50
8422;DHT22;4248;48.196;10.924;2023-02-28T01:23:24;-1.80;46.60
8422;DHT22;4248;48.196;10.924;2023-02-28T01:25:50;-1.80;46.60
8422;DHT22;4248;48.196;10.924;2023-02-28T01:28:16;-1.80;46.60
8422;DHT22;4248;48.196;10.924;2023-02-28T01:30:42;-1.80;46.90
8422;DHT22;4248;48.196;10.924;2023-02-28T01:33:08;-1.80;46.90
8422;DHT22;4248;48.196;10.924;2023-02-28T01:35:34;-1.90;46.90
8422;DHT22;4248;48.196;10.924;2023-02-28T01:38:00;-1.90;47.00
8422;DHT22;4248;48.196;10.924;2023-02-28T01:40:26;-1.90;46.90
8422;DHT22;4248;48.196;10.924;2023-02-28T01:42:52;-2.00;46.90
8422;DHT22;4248;48.196;10.924;2023-02-28T01:45:29;-2.00;47.10
8422;DHT22;4248;48.196;10.924;2023-02-28T01:48:03;-1.80;47.30
8422;DHT22;4248;48.196;10.924;2023-02-28T01:50:33;-2.00;47.20
8422;DHT22;4248;48.196;10.924;2023-02-28T01:53:02;-2.00;47.40
8422;DHT22;4248;48.196;10.924;2023-02-28T01:55:29;-1.90;47.40
8422;DHT22;4248;48.196;10.924;2023-02-28T01:57:58;-1.90;47.40
8422;DHT22;4248;48.196;10.924;2023-02-28T02:00:27;-1.80;47.50
8422;DHT22;4248;48.196;10.924;2023-02-28T02:02:56;-1.90;47.30
8422;DHT22;4248;48.196;10.924;2023-02-28T02:05:25;-2.00;47.20
8422;DHT22;4248;48.196;10.924;2023-02-28T02:07:57;-2.00;47.50
8422;DHT22;4248;48.196;10.924;2023-02-28T02:10:33;-2.00;47.60
8422;DHT22;4248;48.196;10.924;2023-02-28T02:18:42;-2.20;48.00
8422;DHT22;4248;48.196;10.924;2023-02-28T02:37:51;-2.40;48.90
8422;DHT22;4248;48.196;10.924;2023-02-28T02:40:25;-2.40;48.80
8422;DHT22;4248;48.196;10.924;2023-02-28T02:42:59;-2.50;48.90
8422;DHT22;4248;48.196;10.924;2023-02-28T02:45:38;-2.50;49.00
8422;DHT22;4248;48.196;10.924;2023-02-28T02:48:08;-2.50;49.00
8422;DHT22;4248;48.196;10.924;2023-02-28T02:50:55;-2.50;49.20
8422;DHT22;4248;48.196;10.924;2023-02-28T02:53:29;-2.50;49.40
8422;DHT22;4248;48.196;10.924;2023-02-28T02:55:56;-2.60;49.30
8422;DHT22;4248;48.196;10.924;2023-02-28T02:58:27;-2.60;49.40
8422;DHT22;4248;48.196;10.924;2023-02-28T03:00:57;-2.60;49.50
8422;DHT22;4248;48.196;10.924;2023-02-28T03:03:24;-2.60;49.80
8422;DHT22;4248;48.196;10.924;2023-02-28T03:06:00;-2.60;49.90
8422;DHT22;4248;48.196;10.924;2023-02-28T03:08:28;-2.60;49.90
8422;DHT22;4248;48.196;10.924;2023-02-28T03:10:59;-2.60;50.00
8422;DHT22;4248;48.196;10.924;2023-02-28T03:22:20;-2.70;50.40
8422;DHT22;4248;48.196;10.924;2023-02-28T03:24:50;-2.70;50.60
8422;DHT22;4248;48.196;10.924;2023-02-28T03:27:24;-2.70;50.80
8422;DHT22;4248;48.196;10.924;2023-02-28T03:32:26;-2.80;50.80
8422;DHT22;4248;48.196;10.924;2023-02-28T03:37:32;-2.80;51.20
8422;DHT22;4248;48.196;10.924;2023-02-28T03:40:12;-2.80;51.30
8422;DHT22;4248;48.196;10.924;2023-02-28T03:42:42;-2.80;51.50
8422;DHT22;4248;48.196;10.924;2023-02-28T03:45:19;-2.80;51.60
8422;DHT22;4248;48.196;10.924;2023-02-28T03:48:37;-2.80;51.70
8422;DHT22;4248;48.196;10.924;2023-02-28T03:50:55;-2.80;51.70
8422;DHT22;4248;48.196;10.924;2023-02-28T03:53:51;-2.80;51.80
8422;DHT22;4248;48.196;10.924;2023-02-28T03:56:34;-2.80;51.70
8422;DHT22;4248;48.196;10.924;2023-02-28T03:59:13;-2.80;51.60
8422;DHT22;4248;48.196;10.924;2023-02-28T04:01:41;-2.70;51.80
8422;DHT22;4248;48.196;10.924;2023-02-28T04:04:09;-2.70;51.60
8422;DHT22;4248;48.196;10.924;2023-02-28T04:06:35;-2.60;51.60
8422;DHT22;4248;48.196;10.924;2023-02-28T04:09:02;-2.50;51.30
8422;DHT22;4248;48.196;10.924;2023-02-28T04:11:53;-2.40;51.20
8422;DHT22;4248;48.196;10.924;2023-02-28T04:14:18;-2.30;50.90
8422;DHT22;4248;48.196;10.924;2023-02-28T04:16:44;-2.30;51.00
8422;DHT22;4248;48.196;10.924;2023-02-28T04:19:11;-2.20;51.00
8422;DHT22;4248;48.196;10.924;2023-02-28T04:21:49;-2.20;51.10
8422;DHT22;4248;48.196;10.924;2023-02-28T04:24:18;-2.10;51.10
8422;DHT22;4248;48.196;10.924;2023-02-28T04:26:46;-2.00;51.10
8422;DHT22;4248;48.196;10.924;2023-02-28T04:29:14;-2.00;51.10
8422;DHT22;4248;48.196;10.924;2023-02-28T04:31:40;-2.00;51.00
8422;DHT22;4248;48.196;10.924;2023-02-28T04:34:06;-1.90;51.10
8422;DHT22;4248;48.196;10.924;2023-02-28T04:36:32;-1.70;51.50
8422;DHT22;4248;48.196;10.924;2023-02-28T04:38:57;-1.80;51.20
8422;DHT22;4248;48.196;10.924;2023-02-28T04:41:23;-1.70;51.20
8422;DHT22;4248;48.196;10.924;2023-02-28T04:43:50;-1.70;51.20
8422;DHT22;4248;48.196;10.924;2023-02-28T04:46:16;-1.70;51.30
8422;DHT22;4248;48.196;10.924;2023-02-28T04:48:42;-1.70;51.60
8422;DHT22;4248;48.196;10.924;2023-02-28T04:51:11;-1.60;51.60
8422;DHT22;4248;48.196;10.924;2023-02-28T04:53:38;-1.50;51.50
8422;DHT22;4248;48.196;10.924;2023-02-28T04:56:05;-1.40;51.30
8422;DHT22;4248;48.196;10.924;2023-02-28T04:58:31;-1.30;51.10
8422;DHT22;4248;48.196;10.924;2023-02-28T05:01:06;-1.30;50.90
8422;DHT22;4248;48.196;10.924;2023-02-28T05:03:39;-1.20;50.90
8422;DHT22;4248;48.196;10.924;2023-02-28T05:06:11;-1.20;50.70
8422;DHT22;4248;48.196;10.924;2023-02-28T05:08:37;-1.10;50.80
8422;DHT22;4248;48.196;10.924;2023-02-28T05:11:03;-1.10;50.60
8422;DHT22;4248;48.196;10.924;2023-02-28T05:13:29;-1.10;50.70
8422;DHT22;4248;48.196;10.924;2023-02-28T05:15:55;-1.10;50.90
8422;DHT22;4248;48.196;10.924;2023-02-28T05:18:21;-1.10;51.00
8422;DHT22;4248;48.196;10.924;2023-02-28T05:20:47;-1.10;51.10
8422;DHT22;4248;48.196;10.924;2023-02-28T05:23:13;-1.10;51.10
8422;DHT22;4248;48.196;10.924;2023-02-28T05:25:40;-1.10;51.00
8422;DHT22;4248;48.196;10.924;2023-02-28T05:28:06;-1.10;51.10
8422;DHT22;4248;48.196;10.924;2023-02-28T05:30:32;-1.10;51.10
8422;DHT22;4248;48.196;10.924;2023-02-28T05:32:58;-1.00;51.00
8422;DHT22;4248;48.196;10.924;2023-02-28T05:35:24;-1.10;51.10
8422;DHT22;4248;48.196;10.924;2023-02-28T05:37:50;-1.00;51.00
8422;DHT22;4248;48.196;10.924;2023-02-28T05:40:16;-1.00;51.10
8422;DHT22;4248;48.196;10.924;2023-02-28T05:42:42;-1.00;51.10
8422;DHT22;4248;48.196;10.924;2023-02-28T05:45:09;-1.10;51.20
8422;DHT22;4248;48.196;10.924;2023-02-28T05:47:35;-1.10;51.10
8422;DHT22;4248;48.196;10.924;2023-02-28T05:50:01;-1.00;51.20
8422;DHT22;4248;48.196;10.924;2023-02-28T05:52:27;-1.00;51.00
8422;DHT22;4248;48.196;10.924;2023-02-28T05:54:55;-1.00;50.90
8422;DHT22;4248;48.196;10.924;2023-02-28T05:57:21;-1.00;50.60
8422;DHT22;4248;48.196;10.924;2023-02-28T05:59:46;-1.00;50.60
8422;DHT22;4248;48.196;10.924;2023-02-28T06:02:14;-1.00;50.50
8422;DHT22;4248;48.196;10.924;2023-02-28T06:04:40;-0.90;50.60
8422;DHT22;4248;48.196;10.924;2023-02-28T06:07:07;-1.10;50.30
8422;DHT22;4248;48.196;10.924;2023-02-28T06:09:33;-0.90;50.50
8422;DHT22;4248;48.196;10.924;2023-02-28T06:12:00;-1.10;50.50
8422;DHT22;4248;48.196;10.924;2023-02-28T06:14:25;-1.00;50.50
8422;DHT22;4248;48.196;10.924;2023-02-28T06:16:51;-1.10;50.40
8422;DHT22;4248;48.196;10.924;2023-02-28T06:19:17;-1.10;50.40
8422;DHT22;4248;48.196;10.924;2023-02-28T06:21:43;-1.10;50.30
8422;DHT22;4248;48.196;10.924;2023-02-28T06:24:09;-1.10;50.20
8422;DHT22;4248;48.196;10.924;2023-02-28T06:26:36;-1.10;50.30
8422;DHT22;4248;48.196;10.924;2023-02-28T06:29:01;-1.00;50.40
8422;DHT22;4248;48.196;10.924;2023-02-28T06:31:28;-1.00;50.00
8422;DHT22;4248;48.196;10.924;2023-02-28T06:33:55;-0.90;49.80
8422;DHT22;4248;48.196;10.924;2023-02-28T06:36:20;-0.90;49.90
8422;DHT22;4248;48.196;10.924;2023-02-28T06:38:46;-0.90;49.80
8422;DHT22;4248;48.196;10.924;2023-02-28T06:41:17;-0.80;49.70
8422;DHT22;4248;48.196;10.924;2023-02-28T06:43:43;-0.80;49.50
8422;DHT22;4248;48.196;10.924;2023-02-28T06:46:12;-0.80;49.50
8422;DHT22;4248;48.196;10.924;2023-02-28T06:48:39;-0.90;49.40
8422;DHT22;4248;48.196;10.924;2023-02-28T06:53:32;-0.80;49.70
8422;DHT22;4248;48.196;10.924;2023-02-28T06:55:58;-0.90;49.50
8422;DHT22;4248;48.196;10.924;2023-02-28T06:58:23;-0.70;49.70
8422;DHT22;4248;48.196;10.924;2023-02-28T07:00:52;-0.90;49.70
8422;DHT22;4248;48.196;10.924;2023-02-28T07:03:18;-0.90;49.40
8422;DHT22;4248;48.196;10.924;2023-02-28T07:05:44;-0.80;49.40
8422;DHT22;4248;48.196;10.924;2023-02-28T07:08:11;-0.90;49.30
8422;DHT22;4248;48.196;10.924;2023-02-28T07:10:37;-0.90;49.40
8422;DHT22;4248;48.196;10.924;2023-02-28T07:13:05;-0.90;49.40
8422;DHT22;4248;48.196;10.924;2023-02-28T07:15:30;-0.90;49.20
8422;DHT22;4248;48.196;10.924;2023-02-28T07:17:56;-0.80;49.40
8422;DHT22;4248;48.196;10.924;2023-02-28T07:20:22;-0.70;49.20
8422;DHT22;4248;48.196;10.924;2023-02-28T07:22:49;-0.70;49.00
8422;DHT22;4248;48.196;10.924;2023-02-28T07:25:21;-0.70;48.80
8422;DHT22;4248;48.196;10.924;2023-02-28T07:27:47;-0.70;48.60
8422;DHT22;4248;48.196;10.924;2023-02-28T07:30:12;-0.80;48.70
8422;DHT22;4248;48.196;10.924;2023-02-28T07:32:38;-0.80;48.80
8422;DHT22;4248;48.196;10.924;2023-02-28T07:35:04;-0.80;48.80
8422;DHT22;4248;48.196;10.924;2023-02-28T07:37:30;-0.80;48.80
8422;DHT22;4248;48.196;10.924;2023-02-28T07:39:57;-0.60;48.60
8422;DHT22;4248;48.196;10.924;2023-02-28T07:42:22;-0.60;48.30
8422;DHT22;4248;48.196;10.924;2023-02-28T07:44:48;-0.40;48.30
8422;DHT22;4248;48.196;10.924;2023-02-28T07:47:14;-0.60;48.10
8422;DHT22;4248;48.196;10.924;2023-02-28T07:49:39;-0.50;48.50
8422;DHT22;4248;48.196;10.924;2023-02-28T07:52:06;-0.50;48.30
8422;DHT22;4248;48.196;10.924;2023-02-28T07:54:32;-0.60;48.20
8422;DHT22;4248;48.196;10.924;2023-02-28T07:56:58;-0.60;48.30
8422;DHT22;4248;48.196;10.924;2023-02-28T07:59:24;-0.60;48.20
8422;DHT22;4248;48.196;10.924;2023-02-28T08:01:50;-0.60;48.00
8422;DHT22;4248;48.196;10.924;2023-02-28T08:04:18;-0.50;47.80
8422;DHT22;4248;48.196;10.924;2023-02-28T08:06:44;-0.50;47.90
8422;DHT22;4248;48.196;10.924;2023-02-28T08:09:10;-0.50;47.80
8422;DHT22;4248;48.196;10.924;2023-02-28T08:11:36;-0.50;47.80
8422;DHT22;4248;48.196;10.924;2023-02-28T08:14:02;-0.40;47.70
8422;DHT22;4248;48.196;10.924;2023-02-28T08:16:28;-0.20;47.30
8422;DHT22;4248;48.196;10.924;2023-02-28T08:18:54;-0.10;47.20
8422;DHT22;4248;48.196;10.924;2023-02-28T08:21:20;-0.10;46.70
8422;DHT22;4248;48.196;10.924;2023-02-28T08:23:47;-0.10;46.60
8422;DHT22;4248;48.196;10.924;2023-02-28T08:26:14;-0.10;46.80
8422;DHT22;4248;48.196;10.924;2023-02-28T08:28:40;-0.20;46.70
8422;DHT22;4248;48.196;10.924;2023-02-28T08:31:10;-0.10;46.80
8422;DHT22;4248;48.196;10.924;2023-02-28T08:33:37;0.00;46.60
8422;DHT22;4248;48.196;10.924;2023-02-28T08:36:05;-0.10;46.10
8422;DHT22;4248;48.196;10.924;2023-02-28T08:38:31;-0.10;46.40
8422;DHT22;4248;48.196;10.924;2023-02-28T08:41:01;0.00;46.30
8422;DHT22;4248;48.196;10.924;2023-02-28T08:43:28;0.00;45.70
8422;DHT22;4248;48.196;10.924;2023-02-28T08:45:54;0.10;45.80
8422;DHT22;4248;48.196;10.924;2023-02-28T08:48:26;0.10;45.90
8422;DHT22;4248;48.196;10.924;2023-02-28T08:50:59;0.20;46.00
8422;DHT22;4248;48.196;10.924;2023-02-28T08:53:25;0.20;46.10
8422;DHT22;4248;48.196;10.924;2023-02-28T08:56:04;0.20;45.50
8422;DHT22;4248;48.196;10.924;2023-02-28T08:58:31;0.10;45.50
8422;DHT22;4248;48.196;10.924;2023-02-28T09:00:57;0.10;45.50
8422;DHT22;4248;48.196;10.924;2023-02-28T09:03:23;0.00;45.50
8422;DHT22;4248;48.196;10.924;2023-02-28T09:06:07;0.10;45.50
8422;DHT22;4248;48.196;10.924;2023-02-28T09:08:33;0.30;45.20
8422;DHT22;4248;48.196;10.924;2023-02-28T09:10:59;0.40;44.50
8422;DHT22;4248;48.196;10.924;2023-02-28T09:13:26;0.60;44.60
8422;DHT22;4248;48.196;10.924;2023-02-28T09:15:53;0.60;44.60
8422;DHT22;4248;48.196;10.924;2023-02-28T09:18:22;0.60;44.60
8422;DHT22;4248;48.196;10.924;2023-02-28T09:20:48;0.60;44.60
8422;DHT22;4248;48.196;10.924;2023-02-28T09:23:13;0.60;44.60
8422;DHT22;4248;48.196;10.924;2023-02-28T09:25:46;0.60;44.60
8422;DHT22;4248;48.196;10.924;2023-02-28T09:28:12;0.50;44.50
8422;DHT22;4248;48.196;10.924;2023-02-28T09:30:39;0.70;44.10
8422;DHT22;4248;48.196;10.924;2023-02-28T09:33:05;0.80;44.00
8422;DHT22;4248;48.196;10.924;2023-02-28T09:35:30;0.80;43.10
8422;DHT22;4248;48.196;10.924;2023-02-28T09:37:59;0.80;42.90
8422;DHT22;4248;48.196;10.924;2023-02-28T09:40:26;0.90;42.80
8422;DHT22;4248;48.196;10.924;2023-02-28T09:42:53;1.10;43.10
8422;DHT22;4248;48.196;10.924;2023-02-28T09:45:24;1.10;42.70
8422;DHT22;4248;48.196;10.924;2023-02-28T09:47:55;1.10;42.50
8422;DHT22;4248;48.196;10.924;2023-02-28T09:50:36;1.10;42.40
8422;DHT22;4248;48.196;10.924;2023-02-28T09:53:21;1.30;42.00
8422;DHT22;4248;48.196;10.924;2023-02-28T09:56:00;1.30;41.60
8422;DHT22;4248;48.196;10.924;2023-02-28T09:58:46;1.50;41.10
8422;DHT22;4248;48.196;10.924;2023-02-28T10:01:36;1.60;40.50
8422;DHT22;4248;48.196;10.924;2023-02-28T10:04:34;1.80;40.60
8422;DHT22;4248;48.196;10.924;2023-02-28T10:07:10;2.10;38.10
8422;DHT22;4248;48.196;10.924;2023-02-28T10:09:42;2.10;39.20
8422;DHT22;4248;48.196;10.924;2023-02-28T10:12:11;2.20;39.10
8422;DHT22;4248;48.196;10.924;2023-02-28T10:14:39;2.00;39.00
8422;DHT22;4248;48.196;10.924;2023-02-28T10:17:30;2.10;39.30
8422;DHT22;4248;48.196;10.924;2023-02-28T10:20:04;2.20;38.70
8422;DHT22;4248;48.196;10.924;2023-02-28T10:25:36;2.00;38.60
8422;DHT22;4248;48.196;10.924;2023-02-28T10:28:11;2.00;38.20
8422;DHT22;4248;48.196;10.924;2023-02-28T10:30:43;2.00;38.10
8422;DHT22;4248;48.196;10.924;2023-02-28T10:33:35;2.20;38.30
8422;DHT22;4248;48.196;10.924;2023-02-28T10:36:02;2.10;38.20
8422;DHT22;4248;48.196;10.924;2023-02-28T10:38:33;2.10;38.30
8422;DHT22;4248;48.196;10.924;2023-02-28T10:41:31;2.20;38.10
8422;DHT22;4248;48.196;10.924;2023-02-28T10:44:32;2.00;37.70
8422;DHT22;4248;48.196;10.924;2023-02-28T10:46:58;1.90;38.20
8422;DHT22;4248;48.196;10.924;2023-02-28T10:49:27;1.90;38.40
8422;DHT22;4248;48.196;10.924;2023-02-28T10:51:59;2.10;38.20
8422;DHT22;4248;48.196;10.924;2023-02-28T10:54:34;2.10;37.50
8422;DHT22;4248;48.196;10.924;2023-02-28T10:57:19;2.10;37.20
8422;DHT22;4248;48.196;10.924;2023-02-28T10:59:45;2.00;37.10
8422;DHT22;4248;48.196;10.924;2023-02-28T11:02:35;1.80;37.50
8422;DHT22;4248;48.196;10.924;2023-02-28T11:05:02;1.70;37.70
8422;DHT22;4248;48.196;10.924;2023-02-28T11:07:28;1.80;38.20
8422;DHT22;4248;48.196;10.924;2023-02-28T11:09:58;2.20;37.80
8422;DHT22;4248;48.196;10.924;2023-02-28T11:12:30;2.50;37.00
8422;DHT22;4248;48.196;10.924;2023-02-28T11:15:01;2.80;36.40
8422;DHT22;4248;48.196;10.924;2023-02-28T11:17:30;2.80;35.40
8422;DHT22;4248;48.196;10.924;2023-02-28T11:19:59;2.80;35.50
8422;DHT22;4248;48.196;10.924;2023-02-28T11:22:31;2.50;36.00
8422;DHT22;4248;48.196;10.924;2023-02-28T11:25:00;2.50;36.00
8422;DHT22;4248;48.196;10.924;2023-02-28T11:29:56;2.50;36.50
8422;DHT22;4248;48.196;10.924;2023-02-28T11:32:24;2.60;36.60
8422;DHT22;4248;48.196;10.924;2023-02-28T11:37:36;2.80;36.60
8422;DHT22;4248;48.196;10.924;2023-02-28T11:40:12;2.60;36.40
8422;DHT22;4248;48.196;10.924;2023-02-28T11:48:22;2.60;36.40
8422;DHT22;4248;48.196;10.924;2023-02-28T12:04:40;3.00;34.60
8422;DHT22;4248;48.196;10.924;2023-02-28T12:12:58;3.40;34.30
8422;DHT22;4248;48.196;10.924;2023-02-28T12:18:47;3.40;33.80
8422;DHT22;4248;48.196;10.924;2023-02-28T12:23:55;3.70;33.90
8422;DHT22;4248;48.196;10.924;2023-02-28T12:28:52;3.50;33.70
8422;DHT22;4248;48.196;10.924;2023-02-28T12:33:50;3.20;33.80
8422;DHT22;4248;48.196;10.924;2023-02-28T12:36:19;3.30;34.10
8422;DHT22;4248;48.196;10.924;2023-02-28T12:41:54;3.10;34.20
8422;DHT22;4248;48.196;10.924;2023-02-28T12:44:42;3.00;34.20
8422;DHT22;4248;48.196;10.924;2023-02-28T12:47:16;3.20;34.20
8422;DHT22;4248;48.196;10.924;2023-02-28T12:49:52;3.40;35.00
8422;DHT22;4248;48.196;10.924;2023-02-28T13:00:30;3.50;34.10
8422;DHT22;4248;48.196;10.924;2023-02-28T13:10:47;3.90;34.20
8422;DHT22;4248;48.196;10.924;2023-02-28T13:13:24;3.80;34.10
8422;DHT22;4248;48.196;10.924;2023-02-28T13:16:01;3.70;34.00
8422;DHT22;4248;48.196;10.924;2023-02-28T13:18:31;3.90;34.20
8422;DHT22;4248;48.196;10.924;2023-02-28T13:20:57;3.90;33.90
8422;DHT22;4248;48.196;10.924;2023-02-28T13:26:17;4.00;33.50
8422;DHT22;4248;48.196;10.924;2023-02-28T13:31:15;3.70;34.00
8422;DHT22;4248;48.196;10.924;2023-02-28T13:38:48;3.70;34.00
8422;DHT22;4248;48.196;10.924;2023-02-28T13:46:27;3.50;33.80
8422;DHT22;4248;48.196;10.924;2023-02-28T13:48:53;3.40;33.70
8422;DHT22;4248;48.196;10.924;2023-02-28T13:51:47;3.30;33.80
8422;DHT22;4248;48.196;10.924;2023-02-28T14:02:47;3.80;34.10
8422;DHT22;4248;48.196;10.924;2023-02-28T14:05:19;4.10;33.30
8422;DHT22;4248;48.196;10.924;2023-02-28T14:07:56;4.30;32.90
8422;DHT22;4248;48.196;10.924;2023-02-28T14:10:39;4.40;32.40
8422;DHT22;4248;48.196;10.924;2023-02-28T14:16:03;4.60;32.10
8422;DHT22;4248;48.196;10.924;2023-02-28T14:18:33;4.80;31.80
8422;DHT22;4248;48.196;10.924;2023-02-28T14:29:45;4.40;31.90
8422;DHT22;4248;48.196;10.924;2023-02-28T14:37:51;4.40;32.50
8422;DHT22;4248;48.196;10.924;2023-02-28T14:40:33;4.60;32.40
8422;DHT22;4248;48.196;10.924;2023-02-28T14:43:16;4.60;32.10
8422;DHT22;4248;48.196;10.924;2023-02-28T14:45:47;4.50;31.30
8422;DHT22;4248;48.196;10.924;2023-02-28T14:48:16;4.50;31.10
8422;DHT22;4248;48.196;10.924;2023-02-28T14:50:48;4.60;32.60
8422;DHT22;4248;48.196;10.924;2023-02-28T14:53:18;4.70;31.00
8422;DHT22;4248;48.196;10.924;2023-02-28T14:55:47;4.70;31.00
8422;DHT22;4248;48.196;10.924;2023-02-28T14:58:32;4.60;30.80
8422;DHT22;4248;48.196;10.924;2023-02-28T15:01:03;4.60;31.50
8422;DHT22;4248;48.196;10.924;2023-02-28T15:03:37;4.40;31.20
8422;DHT22;4248;48.196;10.924;2023-02-28T15:06:06;4.20;31.70
8422;DHT22;4248;48.196;10.924;2023-02-28T15:08:38;4.10;31.80
8422;DHT22;4248;48.196;10.924;2023-02-28T15:11:07;4.00;32.10
8422;DHT22;4248;48.196;10.924;2023-02-28T15:13:40;4.00;32.50
8422;DHT22;4248;48.196;10.924;2023-02-28T15:19:02;3.80;32.60
8422;DHT22;4248;48.196;10.924;2023-02-28T15:21:33;3.80;33.00
8422;DHT22;4248;48.196;10.924;2023-02-28T15:26:43;3.60;33.60
8422;DHT22;4248;48.196;10.924;2023-02-28T15:29:17;3.60;33.80
8422;DHT22;4248;48.196;10.924;2023-02-28T15:31:48;3.60;33.90
8422;DHT22;4248;48.196;10.924;2023-02-28T15:34:44;3.50;33.80
8422;DHT22;4248;48.196;10.924;2023-02-28T15:37:29;3.50;33.80
8422;DHT22;4248;48.196;10.924;2023-02-28T15:39:58;3.50;33.80
8422;DHT22;4248;48.196;10.924;2023-02-28T15:42:30;3.40;35.00
8422;DHT22;4248;48.196;10.924;2023-02-28T15:44:57;3.40;33.90
8422;DHT22;4248;48.196;10.924;2023-02-28T15:47:27;3.40;34.20
8422;DHT22;4248;48.196;10.924;2023-02-28T15:50:08;3.30;34.30
8422;DHT22;4248;48.196;10.924;2023-02-28T15:52:45;3.30;34.60
8422;DHT22;4248;48.196;10.924;2023-02-28T15:55:23;3.30;34.70
8422;DHT22;4248;48.196;10.924;2023-02-28T15:57:54;3.20;34.80
8422;DHT22;4248;48.196;10.924;2023-02-28T16:00:25;3.20;35.10
8422;DHT22;4248;48.196;10.924;2023-02-28T16:02:51;3.10;35.30
8422;DHT22;4248;48.196;10.924;2023-02-28T16:05:23;3.10;35.50
8422;DHT22;4248;48.196;10.924;2023-02-28T16:07:54;3.10;35.50
8422;DHT22;4248;48.196;10.924;2023-02-28T16:10:22;3.00;35.70
8422;DHT22;4248;48.196;10.924;2023-02-28T16:12:55;3.00;35.80
8422;DHT22;4248;48.196;10.924;2023-02-28T16:15:30;3.00;35.90
8422;DHT22;4248;48.196;10.924;2023-02-28T16:17:57;2.90;36.10
8422;DHT22;4248;48.196;10.924;2023-02-28T16:20:30;2.80;36.10
8422;DHT22;4248;48.196;10.924;2023-02-28T16:22:56;2.80;36.30
8422;DHT22;4248;48.196;10.924;2023-02-28T16:25:45;2.80;36.50
8422;DHT22;4248;48.196;10.924;2023-02-28T16:28:33;2.80;36.60
8422;DHT22;4248;48.196;10.924;2023-02-28T16:31:00;2.70;36.60
8422;DHT22;4248;48.196;10.924;2023-02-28T16:33:29;2.70;36.80
8422;DHT22;4248;48.196;10.924;2023-02-28T16:35:56;2.60;36.70
8422;DHT22;4248;48.196;10.924;2023-02-28T16:38:23;2.60;37.00
8422;DHT22;4248;48.196;10.924;2023-02-28T16:40:51;2.60;37.20
8422;DHT22;4248;48.196;10.924;2023-02-28T16:43:23;2.50;37.20
8422;DHT22;4248;48.196;10.924;2023-02-28T16:45:57;2.40;37.40
8422;DHT22;4248;48.196;10.924;2023-02-28T16:48:24;2.40;37.70
8422;DHT22;4248;48.196;10.924;2023-02-28T16:50:50;2.30;37.80
8422;DHT22;4248;48.196;10.924;2023-02-28T16:53:16;2.30;37.90
8422;DHT22;4248;48.196;10.924;2023-02-28T16:55:41;2.10;38.10
8422;DHT22;4248;48.196;10.924;2023-02-28T16:58:13;2.10;38.30
8422;DHT22;4248;48.196;10.924;2023-02-28T17:00:40;2.10;38.40
8422;DHT22;4248;48.196;10.924;2023-02-28T17:03:13;2.00;38.40
8422;DHT22;4248;48.196;10.924;2023-02-28T17:05:44;2.00;38.70
8422;DHT22;4248;48.196;10.924;2023-02-28T17:08:10;1.90;38.50
8422;DHT22;4248;48.196;10.924;2023-02-28T17:10:36;1.90;38.70
8422;DHT22;4248;48.196;10.924;2023-02-28T17:13:01;1.80;38.60
8422;DHT22;4248;48.196;10.924;2023-02-28T17:15:27;1.80;38.80
8422;DHT22;4248;48.196;10.924;2023-02-28T17:17:52;1.70;38.90
8422;DHT22;4248;48.196;10.924;2023-02-28T17:20:20;1.70;39.00
8422;DHT22;4248;48.196;10.924;2023-02-28T17:22:50;1.60;39.20
8422;DHT22;4248;48.196;10.924;2023-02-28T17:25:16;1.50;39.30
8422;DHT22;4248;48.196;10.924;2023-02-28T17:27:42;1.50;39.90
8422;DHT22;4248;48.196;10.924;2023-02-28T17:30:18;1.40;39.90
8422;DHT22;4248;48.196;10.924;2023-02-28T17:32:44;1.40;39.90
8422;DHT22;4248;48.196;10.924;2023-02-28T17:35:09;1.40;40.00
8422;DHT22;4248;48.196;10.924;2023-02-28T17:37:35;1.40;40.10
8422;DHT22;4248;48.196;10.924;2023-02-28T17:40:01;1.40;40.20
8422;DHT22;4248;48.196;10.924;2023-02-28T17:42:26;1.30;40.00
8422;DHT22;4248;48.196;10.924;2023-02-28T17:44:52;1.30;40.10
8422;DHT22;4248;48.196;10.924;2023-02-28T17:47:17;1.20;40.30
8422;DHT22;4248;48.196;10.924;2023-02-28T17:49:43;1.20;40.40
8422;DHT22;4248;48.196;10.924;2023-02-28T17:52:09;1.20;40.60
8422;DHT22;4248;48.196;10.924;2023-02-28T17:54:34;1.20;40.80
8422;DHT22;4248;48.196;10.924;2023-02-28T17:57:00;1.10;41.00
8422;DHT22;4248;48.196;10.924;2023-02-28T17:59:26;1.00;41.00
8422;DHT22;4248;48.196;10.924;2023-02-28T18:01:59;1.00;41.10
8422;DHT22;4248;48.196;10.924;2023-02-28T18:04:24;1.00;41.40
8422;DHT22;4248;48.196;10.924;2023-02-28T18:06:52;0.90;41.40
8422;DHT22;4248;48.196;10.924;2023-02-28T18:09:20;0.90;41.50
8422;DHT22;4248;48.196;10.924;2023-02-28T18:11:50;0.90;41.50
8422;DHT22;4248;48.196;10.924;2023-02-28T18:14:18;0.90;41.50
8422;DHT22;4248;48.196;10.924;2023-02-28T18:16:44;0.90;41.60
8422;DHT22;4248;48.196;10.924;2023-02-28T18:19:11;0.90;41.80
8422;DHT22;4248;48.196;10.924;2023-02-28T18:21:45;0.90;42.00
8422;DHT22;4248;48.196;10.924;2023-02-28T18:24:11;0.90;41.90
8422;DHT22;4248;48.196;10.924;2023-02-28T18:26:38;1.00;41.90
8422;DHT22;4248;48.196;10.924;2023-02-28T18:29:05;1.20;41.50
8422;DHT22;4248;48.196;10.924;2023-02-28T18:31:31;1.40;41.20
8422;DHT22;4248;48.196;10.924;2023-02-28T18:33:58;1.50;41.00
8422;DHT22;4248;48.196;10.924;2023-02-28T18:36:24;1.60;40.80
8422;DHT22;4248;48.196;10.924;2023-02-28T18:38:51;1.70;40.60